KAKQ

Wakefield Municipal Airport

Wakefield, Virginia, USA
METAR KAKQ 190254Z AUTO 22006KT 10SM CLR M02/M06 A3017 RMK AO2 SLP221 T10171061 53007 TSNO
Observed Flight Rules
Jan-19 @ 02:54 UTC (54 minutes ago) Visual Flight Rules
Wind Visibility Clouds
220° at 6 knots 10 miles
  • Clear skies
Temperatures Readings
Current -2°C / 28°F
Dewpoint -6°C / 21°F
Humidity 74%
Altimeter 30.17" Hg
Pressure 1022.1 hPa
Elevation 34
METAR KAKQ 190254Z AUTO 22006KT 10SM CLR M02/M06 A3017 RMK AO2 SLP221 T10171061 53007 TSNO
Observed Flight Rules
Jan-19 @ 02:54 UTC
(54 minutes ago)
VFR
Wind Visibility
220° at 6 knots 10 miles
Clouds
  • Clear skies
Temperature Dewpoint
-2°C / 28°F -6°C / 21°F
Humidity Altimeter Pressure
74% 30.17" Hg 1022.1 hPa